Time,TemperatureF,DewpointF,PressureIn,WindDirection,WindDirectionDegrees,WindSpeedMPH,WindSpeedGustMPH,Humidity,HourlyPrecipIn,Conditions,Clouds,dailyrainin,SolarRadiationWatts/m^2,SoftwareType,DateUTC
2013-02-03 00:02:00,-1.0,-7.0,-100.00,WSW,257,3.0,7.0,75,0.00,,,0.00,0.000000,,2013-02-03 06:02:00,
2013-02-03 00:21:00,0.0,-5.0,-100.00,West,271,4.0,10.0,77,0.00,,,0.00,0.000000,,2013-02-03 06:21:00,
2013-02-03 00:32:00,0.0,-5.0,-100.00,West,271,4.0,10.0,77,0.00,,,0.00,0.000000,,2013-02-03 06:32:00,
2013-02-03 00:42:00,0.0,-5.0,-100.00,West,271,4.0,10.0,77,0.00,,,0.00,0.000000,,2013-02-03 06:42:00,
2013-02-03 00:52:00,0.0,-5.0,-100.00,West,271,4.0,10.0,77,0.00,,,0.00,0.000000,,2013-02-03 06:52:00,
2013-02-03 01:01:00,0.0,-5.0,-100.00,West,271,4.0,10.0,77,0.00,,,0.00,0.000000,,2013-02-03 07:01:00,
2013-02-03 01:32:00,1.0,-5.0,-100.00,West,279,6.0,16.0,75,0.00,,,0.00,0.000000,,2013-02-03 07:32:00,
2013-02-03 01:42:00,1.0,-5.0,-100.00,West,279,6.0,16.0,75,0.00,,,0.00,0.000000,,2013-02-03 07:42:00,
2013-02-03 01:52:00,1.0,-5.0,-100.00,West,279,6.0,16.0,75,0.00,,,0.00,0.000000,,2013-02-03 07:52:00,
2013-02-03 02:01:00,1.0,-5.0,-100.00,West,279,6.0,16.0,75,0.00,,,0.00,0.000000,,2013-02-03 08:01:00,
2013-02-03 02:32:00,0.0,-6.0,-100.00,WNW,288,6.0,12.0,76,0.00,,,0.00,0.000000,,2013-02-03 08:32:00,
2013-02-03 02:42:00,0.0,-6.0,-100.00,WNW,288,6.0,12.0,76,0.00,,,0.00,0.000000,,2013-02-03 08:42:00,
2013-02-03 02:52:00,0.0,-6.0,-100.00,WNW,288,6.0,12.0,76,0.00,,,0.00,0.000000,,2013-02-03 08:52:00,
2013-02-03 03:02:00,0.0,-6.0,-100.00,WNW,288,6.0,12.0,76,0.00,,,0.00,0.000000,,2013-02-03 09:02:00,
2013-02-03 03:32:00,0.0,-6.0,-100.00,WNW,291,5.0,14.0,74,0.00,,,-99.99,0.000000,,2013-02-03 09:32:00,
2013-02-03 03:42:00,0.0,-6.0,-100.00,WNW,291,5.0,14.0,74,0.00,,,-99.99,0.000000,,2013-02-03 09:42:00,
2013-02-03 03:52:00,0.0,-6.0,-100.00,WNW,291,5.0,14.0,74,0.00,,,-99.99,0.000000,,2013-02-03 09:52:00,
2013-02-03 04:01:00,0.0,-6.0,-100.00,WNW,291,5.0,14.0,74,0.00,,,-99.99,0.000000,,2013-02-03 10:01:00,
2013-02-03 04:32:00,-2.0,-9.0,-100.00,WNW,299,6.0,16.0,73,0.00,,,0.00,0.000000,,2013-02-03 10:32:00,
2013-02-03 04:42:00,-2.0,-9.0,-100.00,WNW,299,6.0,16.0,73,0.00,,,0.00,0.000000,,2013-02-03 10:42:00,
2013-02-03 04:52:00,-2.0,-9.0,-100.00,WNW,299,6.0,16.0,73,0.00,,,0.00,0.000000,,2013-02-03 10:52:00,
2013-02-03 05:02:00,-2.0,-9.0,-100.00,WNW,299,6.0,16.0,73,0.00,,,0.00,0.000000,,2013-02-03 11:02:00,
2013-02-03 05:32:00,-3.0,-9.0,-100.00,WNW,284,7.0,15.0,73,0.00,,,0.00,0.000000,,2013-02-03 11:32:00,
2013-02-03 05:42:00,-3.0,-9.0,-100.00,WNW,284,7.0,15.0,73,0.00,,,0.00,0.000000,,2013-02-03 11:42:00,
2013-02-03 05:52:00,-3.0,-9.0,-100.00,WNW,284,7.0,15.0,73,0.00,,,0.00,0.000000,,2013-02-03 11:52:00,
2013-02-03 06:02:00,-3.0,-9.0,-100.00,WNW,284,7.0,15.0,73,0.00,,,0.00,0.000000,,2013-02-03 12:02:00,
2013-02-03 06:32:00,-5.0,-12.0,-100.00,WNW,298,6.0,15.0,71,0.00,,,0.00,0.000000,,2013-02-03 12:32:00,
2013-02-03 06:42:00,-5.0,-12.0,-100.00,WNW,298,6.0,15.0,71,0.00,,,0.00,0.000000,,2013-02-03 12:42:00,
2013-02-03 06:53:00,-5.0,-12.0,-100.00,WNW,298,6.0,15.0,71,0.00,,,0.00,0.000000,,2013-02-03 12:53:00,
2013-02-03 07:03:00,-5.0,-12.0,-100.00,WNW,298,6.0,15.0,71,0.00,,,0.00,0.000000,,2013-02-03 13:03:00,
2013-02-03 07:32:00,-6.0,-12.0,-100.00,WNW,303,4.0,13.0,73,0.00,,,0.00,0.000000,,2013-02-03 13:32:00,
2013-02-03 07:42:00,-6.0,-12.0,-100.00,WNW,303,4.0,13.0,73,0.00,,,0.00,0.000000,,2013-02-03 13:42:00,
2013-02-03 07:52:00,-6.0,-12.0,-100.00,WNW,303,4.0,13.0,73,0.00,,,0.00,0.000000,,2013-02-03 13:52:00,
2013-02-03 08:02:00,-6.0,-12.0,-100.00,WNW,303,4.0,13.0,73,0.00,,,0.00,0.000000,,2013-02-03 14:02:00,
2013-02-03 08:32:00,-7.0,-13.0,-100.00,WNW,299,4.0,11.0,73,0.00,,,0.00,3.000000,,2013-02-03 14:32:00,
2013-02-03 08:42:00,-7.0,-13.0,-100.00,WNW,299,4.0,11.0,73,0.00,,,0.00,3.000000,,2013-02-03 14:42:00,
2013-02-03 08:52:00,-7.0,-13.0,-100.00,WNW,299,4.0,11.0,73,0.00,,,0.00,3.000000,,2013-02-03 14:52:00,
2013-02-03 09:03:00,-7.0,-13.0,-100.00,WNW,299,4.0,11.0,73,0.00,,,0.00,3.000000,,2013-02-03 15:03:00,
2013-02-03 09:33:00,-4.0,-12.0,-100.00,WNW,298,6.0,11.0,67,0.00,,,0.00,53.000000,,2013-02-03 15:33:00,
2013-02-03 09:42:00,-4.0,-12.0,-100.00,WNW,298,6.0,11.0,67,0.00,,,0.00,53.000000,,2013-02-03 15:42:00,
2013-02-03 09:52:00,-4.0,-12.0,-100.00,WNW,298,6.0,11.0,67,0.00,,,0.00,53.000000,,2013-02-03 15:52:00,
2013-02-03 10:02:00,-4.0,-12.0,-100.00,WNW,298,6.0,11.0,67,0.00,,,0.00,53.000000,,2013-02-03 16:02:00,
2013-02-03 10:33:00,-2.0,-12.0,-100.00,WNW,301,6.0,15.0,60,0.00,,,0.00,101.000000,,2013-02-03 16:33:00,
2013-02-03 10:42:00,-2.0,-12.0,-100.00,WNW,301,6.0,15.0,60,0.00,,,0.00,101.000000,,2013-02-03 16:42:00,
2013-02-03 10:52:00,-2.0,-12.0,-100.00,WNW,301,6.0,15.0,60,0.00,,,0.00,101.000000,,2013-02-03 16:52:00,
2013-02-03 11:02:00,-2.0,-12.0,-100.00,WNW,301,6.0,15.0,60,0.00,,,0.00,101.000000,,2013-02-03 17:02:00,
2013-02-03 11:32:00,-1.0,-12.0,-100.00,WNW,295,6.0,13.0,58,0.00,,,0.00,89.000000,,2013-02-03 17:32:00,
2013-02-03 11:42:00,-1.0,-12.0,-100.00,WNW,295,6.0,13.0,58,0.00,,,0.00,89.000000,,2013-02-03 17:42:00,
2013-02-03 11:52:00,-1.0,-12.0,-100.00,WNW,295,6.0,13.0,58,0.00,,,0.00,89.000000,,2013-02-03 17:52:00,
2013-02-03 12:03:00,-1.0,-12.0,-100.00,WNW,295,6.0,13.0,58,0.00,,,0.00,89.000000,,2013-02-03 18:03:00,
2013-02-03 12:23:00,1.0,-13.0,-100.00,WNW,293,6.0,12.0,51,0.00,,,0.00,140.000000,,2013-02-03 18:23:00,
2013-02-03 12:33:00,1.0,-13.0,-100.00,WNW,293,6.0,12.0,51,0.00,,,0.00,140.000000,,2013-02-03 18:33:00,
2013-02-03 12:42:00,1.0,-13.0,-100.00,WNW,293,6.0,12.0,51,0.00,,,0.00,140.000000,,2013-02-03 18:42:00,
2013-02-03 12:52:00,1.0,-13.0,-100.00,WNW,293,6.0,12.0,51,0.00,,,0.00,140.000000,,2013-02-03 18:52:00,
2013-02-03 13:02:00,1.0,-13.0,-100.00,WNW,293,6.0,12.0,51,0.00,,,0.00,140.000000,,2013-02-03 19:02:00,
2013-02-03 13:33:00,3.0,-11.0,-100.00,West,272,7.0,12.0,51,0.00,,,0.00,143.000000,,2013-02-03 19:33:00,
2013-02-03 13:42:00,3.0,-11.0,-100.00,West,272,7.0,12.0,51,0.00,,,0.00,143.000000,,2013-02-03 19:42:00,
2013-02-03 13:52:00,3.0,-11.0,-100.00,West,272,7.0,12.0,51,0.00,,,0.00,143.000000,,2013-02-03 19:52:00,
2013-02-03 14:01:00,3.0,-11.0,-100.00,West,272,7.0,12.0,51,0.00,,,0.00,143.000000,,2013-02-03 20:01:00,
2013-02-03 14:33:00,4.0,-10.0,-100.00,West,275,6.0,14.0,51,0.00,,,0.00,81.000000,,2013-02-03 20:33:00,
2013-02-03 14:42:00,4.0,-10.0,-100.00,West,275,6.0,14.0,51,0.00,,,0.00,81.000000,,2013-02-03 20:42:00,
2013-02-03 14:52:00,4.0,-10.0,-100.00,West,275,6.0,14.0,51,0.00,,,0.00,81.000000,,2013-02-03 20:52:00,
2013-02-03 15:03:00,4.0,-10.0,-100.00,West,275,6.0,14.0,51,0.00,,,0.00,81.000000,,2013-02-03 21:03:00,
2013-02-03 15:33:00,6.0,-11.0,-100.00,WNW,289,5.0,11.0,45,0.00,,,0.00,100.000000,,2013-02-03 21:33:00,
2013-02-03 15:42:00,6.0,-11.0,-100.00,WNW,289,5.0,11.0,45,0.00,,,0.00,100.000000,,2013-02-03 21:42:00,
2013-02-03 15:52:00,6.0,-11.0,-100.00,WNW,289,5.0,11.0,45,0.00,,,0.00,100.000000,,2013-02-03 21:52:00,
2013-02-03 16:01:00,6.0,-11.0,-100.00,WNW,289,5.0,11.0,45,0.00,,,0.00,100.000000,,2013-02-03 22:01:00,
2013-02-03 16:32:00,4.0,-11.0,-100.00,WNW,296,5.0,12.0,48,0.00,,,0.00,123.000000,,2013-02-03 22:32:00,
2013-02-03 16:42:00,4.0,-11.0,-100.00,WNW,296,5.0,12.0,48,0.00,,,0.00,123.000000,,2013-02-03 22:42:00,
2013-02-03 16:52:00,4.0,-11.0,-100.00,WNW,296,5.0,12.0,48,0.00,,,0.00,123.000000,,2013-02-03 22:52:00,
2013-02-03 17:01:00,4.0,-11.0,-100.00,WNW,296,5.0,12.0,48,0.00,,,0.00,123.000000,,2013-02-03 23:01:00,
2013-02-03 17:32:00,-1.0,-12.0,-100.00,NW,320,2.0,10.0,58,0.00,,,0.00,29.000000,,2013-02-03 23:32:00,
2013-02-03 17:42:00,-1.0,-12.0,-100.00,NW,320,2.0,10.0,58,0.00,,,0.00,29.000000,,2013-02-03 23:42:00,
2013-02-03 17:52:00,-1.0,-12.0,-100.00,NW,320,2.0,10.0,58,0.00,,,0.00,29.000000,,2013-02-03 23:52:00,
2013-02-03 18:02:00,-1.0,-12.0,-100.00,NW,320,2.0,10.0,58,0.00,,,0.00,29.000000,,2013-02-04 00:02:00,
2013-02-03 18:32:00,-6.0,-14.0,-100.00,NW,318,2.0,4.0,68,0.00,,,0.00,1.000000,,2013-02-04 00:32:00,
2013-02-03 18:42:00,-6.0,-14.0,-100.00,NW,318,2.0,4.0,68,0.00,,,0.00,1.000000,,2013-02-04 00:42:00,
2013-02-03 18:52:00,-6.0,-14.0,-100.00,NW,318,2.0,4.0,68,0.00,,,0.00,1.000000,,2013-02-04 00:52:00,
2013-02-03 19:01:00,-6.0,-14.0,-100.00,NW,318,2.0,4.0,68,0.00,,,0.00,1.000000,,2013-02-04 01:01:00,
2013-02-03 19:22:00,-8.0,-15.0,-100.00,NNW,334,2.0,3.0,72,0.00,,,0.00,0.000000,,2013-02-04 01:22:00,
2013-02-03 19:32:00,-8.0,-15.0,-100.00,NNW,334,2.0,3.0,72,0.00,,,0.00,0.000000,,2013-02-04 01:32:00,
2013-02-03 19:42:00,-8.0,-15.0,-100.00,NNW,334,2.0,3.0,72,0.00,,,0.00,0.000000,,2013-02-04 01:42:00,
2013-02-03 19:52:00,-8.0,-15.0,-100.00,NNW,334,2.0,3.0,72,0.00,,,0.00,0.000000,,2013-02-04 01:52:00,
2013-02-03 20:02:00,-8.0,-15.0,-100.00,NNW,334,2.0,3.0,72,0.00,,,0.00,0.000000,,2013-02-04 02:02:00,
2013-02-03 20:22:00,-9.0,-15.0,-100.00,West,273,3.0,5.0,73,0.00,,,0.00,0.000000,,2013-02-04 02:22:00,
2013-02-03 20:32:00,-9.0,-15.0,-100.00,West,273,3.0,5.0,73,0.00,,,0.00,0.000000,,2013-02-04 02:32:00,
2013-02-03 20:42:00,-9.0,-15.0,-100.00,West,273,3.0,5.0,73,0.00,,,0.00,0.000000,,2013-02-04 02:42:00,
2013-02-03 20:52:00,-9.0,-15.0,-100.00,West,273,3.0,5.0,73,0.00,,,0.00,0.000000,,2013-02-04 02:52:00,
2013-02-03 21:02:00,-9.0,-15.0,-100.00,West,273,3.0,5.0,73,0.00,,,0.00,0.000000,,2013-02-04 03:02:00,
2013-02-03 21:32:00,-10.0,-17.0,-100.00,West,267,2.0,6.0,70,0.00,,,0.00,0.000000,,2013-02-04 03:32:00,
2013-02-03 21:42:00,-10.0,-17.0,-100.00,West,267,2.0,6.0,70,0.00,,,0.00,0.000000,,2013-02-04 03:42:00,
2013-02-03 21:52:00,-10.0,-17.0,-100.00,West,267,2.0,6.0,70,0.00,,,0.00,0.000000,,2013-02-04 03:52:00,
2013-02-03 22:01:00,-10.0,-17.0,-100.00,West,267,2.0,6.0,70,0.00,,,0.00,0.000000,,2013-02-04 04:01:00,
2013-02-03 22:32:00,-11.0,-18.0,-100.00,West,270,3.0,5.0,71,0.00,,,0.00,0.000000,,2013-02-04 04:32:00,
2013-02-03 22:42:00,-11.0,-18.0,-100.00,West,270,3.0,5.0,71,0.00,,,0.00,0.000000,,2013-02-04 04:42:00,
2013-02-03 22:52:00,-11.0,-18.0,-100.00,West,270,3.0,5.0,71,0.00,,,0.00,0.000000,,2013-02-04 04:52:00,
2013-02-03 23:22:00,-12.0,-18.0,-100.00,West,273,3.0,6.0,72,-99.99,,,0.00,0.000000,,2013-02-04 05:22:00,
2013-02-03 23:33:00,-12.0,-18.0,-100.00,West,273,3.0,6.0,72,-99.99,,,0.00,0.000000,,2013-02-04 05:33:00,